createdAt,value
2019-03-30T00:00:19.159Z,5.57
2019-03-30T00:02:45.465Z,5.58
2019-03-30T00:05:11.766Z,5.63
2019-03-30T00:07:38.078Z,5.57
2019-03-30T00:10:04.396Z,5.65
2019-03-30T00:12:30.699Z,5.87
2019-03-30T00:14:57.003Z,5.80
2019-03-30T00:17:23.315Z,5.76
2019-03-30T00:19:49.619Z,5.70
2019-03-30T00:22:15.928Z,5.69
2019-03-30T00:24:42.235Z,5.64
2019-03-30T00:27:08.541Z,5.56
2019-03-30T00:29:34.842Z,5.54
2019-03-30T00:32:01.153Z,5.45
2019-03-30T00:34:27.455Z,5.30
2019-03-30T00:36:53.754Z,5.23
2019-03-30T00:39:20.070Z,5.28
2019-03-30T00:41:46.378Z,5.19
2019-03-30T00:44:12.686Z,5.18
2019-03-30T00:46:38.983Z,5.09
2019-03-30T00:49:05.293Z,5.00
2019-03-30T00:51:31.595Z,4.99
2019-03-30T00:53:57.895Z,4.98
2019-03-30T00:56:24.199Z,4.93
2019-03-30T00:58:50.506Z,4.99
2019-03-30T01:01:16.817Z,5.10
2019-03-30T01:03:43.157Z,5.21
2019-03-30T01:06:09.431Z,5.19
2019-03-30T01:08:35.736Z,5.19
2019-03-30T01:11:02.041Z,4.98
2019-03-30T01:13:28.351Z,4.95
2019-03-30T01:15:54.651Z,4.99
2019-03-30T01:18:20.960Z,4.83
2019-03-30T01:20:47.331Z,4.61
2019-03-30T01:23:13.612Z,4.56
2019-03-30T01:25:39.916Z,4.59
2019-03-30T01:28:06.229Z,4.50
2019-03-30T01:30:32.582Z,4.50
2019-03-30T01:32:58.876Z,4.51
2019-03-30T01:35:25.282Z,4.50
2019-03-30T01:37:51.498Z,4.38
2019-03-30T01:40:17.816Z,4.30
2019-03-30T01:42:44.309Z,4.26
2019-03-30T01:45:10.632Z,4.25
2019-03-30T01:47:36.936Z,4.27
2019-03-30T01:50:16.149Z,4.33
2019-03-30T01:52:29.558Z,4.34
2019-03-30T01:54:55.855Z,4.31
2019-03-30T01:57:22.158Z,4.35
2019-03-30T01:59:48.463Z,4.33
2019-03-30T02:02:15.029Z,4.30
2019-03-30T02:04:41.330Z,4.33
2019-03-30T02:07:07.639Z,4.37
2019-03-30T02:09:33.960Z,4.33
2019-03-30T02:12:00.307Z,4.29
2019-03-30T02:14:26.612Z,4.25
2019-03-30T02:16:52.914Z,4.30
2019-03-30T02:19:19.230Z,4.37
2019-03-30T02:21:45.529Z,4.38
2019-03-30T02:24:11.834Z,4.32
2019-03-30T02:26:38.162Z,4.16
2019-03-30T02:29:04.467Z,4.17
2019-03-30T02:31:30.775Z,4.18
2019-03-30T02:33:57.085Z,4.15
2019-03-30T02:36:23.393Z,4.03
2019-03-30T02:38:49.699Z,3.95
2019-03-30T02:41:16.000Z,3.82
2019-03-30T02:43:42.315Z,3.73
2019-03-30T02:46:08.628Z,3.70
2019-03-30T02:48:34.927Z,3.68
2019-03-30T02:51:01.265Z,3.63
2019-03-30T02:53:27.560Z,3.58
2019-03-30T02:55:53.882Z,3.49
2019-03-30T02:58:20.193Z,3.37
2019-03-30T03:00:46.492Z,3.24
2019-03-30T03:03:12.805Z,3.30
2019-03-30T03:05:39.109Z,3.35
2019-03-30T03:08:05.436Z,3.36
2019-03-30T03:10:31.723Z,3.35
2019-03-30T03:12:58.050Z,3.27
2019-03-30T03:15:24.354Z,3.19
2019-03-30T03:17:50.661Z,3.11
2019-03-30T03:20:16.982Z,3.10
2019-03-30T03:22:43.311Z,3.05
2019-03-30T03:25:09.634Z,3.07
2019-03-30T03:27:35.925Z,3.15
2019-03-30T03:30:02.243Z,3.11
2019-03-30T03:32:28.550Z,3.12
2019-03-30T03:34:54.886Z,3.16
2019-03-30T03:37:21.189Z,3.15
2019-03-30T03:39:47.493Z,3.11
2019-03-30T03:42:13.803Z,3.18
2019-03-30T03:44:40.119Z,3.12
2019-03-30T03:47:06.428Z,3.05
2019-03-30T03:49:32.724Z,3.05
2019-03-30T03:51:59.034Z,3.02
2019-03-30T03:54:25.337Z,3.06
2019-03-30T03:56:51.646Z,3.06
2019-03-30T03:59:17.950Z,3.21
2019-03-30T04:01:44.265Z,3.29
2019-03-30T04:04:10.632Z,3.35
2019-03-30T04:06:36.948Z,3.38
2019-03-30T04:09:03.255Z,3.28
2019-03-30T04:11:29.552Z,3.23
2019-03-30T04:13:55.857Z,3.24
2019-03-30T04:16:22.176Z,3.18
2019-03-30T04:18:48.733Z,3.15
2019-03-30T04:21:14.789Z,3.13
2019-03-30T04:23:41.133Z,3.06
2019-03-30T04:26:07.434Z,3.04
2019-03-30T04:28:33.739Z,3.11
2019-03-30T04:31:00.053Z,3.14
2019-03-30T04:33:26.350Z,3.24
2019-03-30T04:35:52.653Z,3.32
2019-03-30T04:38:18.962Z,3.29
2019-03-30T04:40:45.270Z,3.28
2019-03-30T04:43:11.569Z,3.43
2019-03-30T04:45:37.873Z,3.69
2019-03-30T04:48:04.183Z,3.85
2019-03-30T04:50:30.480Z,3.88
2019-03-30T04:52:56.790Z,3.65
2019-03-30T04:55:23.087Z,3.63
2019-03-30T04:57:49.615Z,3.76
2019-03-30T05:00:15.696Z,3.91
2019-03-30T05:02:41.999Z,4.21
2019-03-30T05:05:08.309Z,4.63
2019-03-30T05:07:34.616Z,5.02
2019-03-30T05:10:00.923Z,5.32
2019-03-30T05:12:27.231Z,5.75
2019-03-30T05:14:53.540Z,5.98
2019-03-30T05:17:19.843Z,6.05
2019-03-30T05:19:46.156Z,5.99
2019-03-30T05:22:16.327Z,6.10
2019-03-30T05:24:38.772Z,6.56
2019-03-30T05:27:05.080Z,6.88
2019-03-30T05:29:31.390Z,7.15
2019-03-30T05:31:57.708Z,6.92
2019-03-30T05:34:24.017Z,7.02
2019-03-30T05:36:50.402Z,7.00
2019-03-30T05:39:16.805Z,7.10
2019-03-30T05:41:43.200Z,7.33
2019-03-30T05:44:09.515Z,7.45
2019-03-30T05:46:35.831Z,7.85
2019-03-30T05:49:02.147Z,7.91
2019-03-30T05:51:28.456Z,7.81
2019-03-30T05:53:54.785Z,7.70
2019-03-30T05:56:21.096Z,8.02
2019-03-30T05:58:47.407Z,7.85
2019-03-30T06:01:13.740Z,7.95
2019-03-30T06:03:40.318Z,7.92
2019-03-30T06:06:06.644Z,7.98
2019-03-30T06:08:32.955Z,8.17
2019-03-30T06:10:59.297Z,8.39
2019-03-30T06:13:25.605Z,8.49
2019-03-30T06:15:51.903Z,8.50
2019-03-30T06:18:18.451Z,8.63
2019-03-30T06:20:44.760Z,8.52
2019-03-30T06:23:11.072Z,8.41
2019-03-30T06:25:37.390Z,8.54
2019-03-30T06:28:04.283Z,8.90
2019-03-30T06:30:30.607Z,9.16
2019-03-30T06:32:56.948Z,9.69
2019-03-30T06:35:23.256Z,9.87
2019-03-30T06:37:49.559Z,9.95
2019-03-30T06:40:15.880Z,9.96
2019-03-30T06:42:42.219Z,9.73
2019-03-30T06:45:08.523Z,10.07
2019-03-30T06:47:34.827Z,10.17
2019-03-30T06:50:01.146Z,9.79
2019-03-30T06:52:27.460Z,9.91
2019-03-30T06:54:53.795Z,10.55
2019-03-30T06:57:20.112Z,10.70
2019-03-30T06:59:46.654Z,11.02
2019-03-30T07:02:12.964Z,11.53
2019-03-30T07:04:39.283Z,11.66
2019-03-30T07:07:05.593Z,11.56
2019-03-30T07:09:31.915Z,11.63
2019-03-30T07:11:58.230Z,11.92
2019-03-30T07:14:24.549Z,11.21
2019-03-30T07:16:50.871Z,10.90
2019-03-30T07:19:17.179Z,11.02
2019-03-30T07:21:43.484Z,11.05
2019-03-30T07:24:09.965Z,10.93
2019-03-30T07:26:36.267Z,11.36
2019-03-30T07:29:02.573Z,12.18
2019-03-30T07:31:28.884Z,12.41
2019-03-30T07:33:55.188Z,12.74
2019-03-30T07:36:21.505Z,12.28
2019-03-30T07:38:47.816Z,12.41
2019-03-30T07:41:14.119Z,12.33
2019-03-30T07:43:40.458Z,13.03
2019-03-30T07:46:06.797Z,13.31
2019-03-30T07:48:33.099Z,13.15
2019-03-30T07:50:59.407Z,13.39
2019-03-30T07:53:27.043Z,13.24
2019-03-30T07:55:52.036Z,13.27
2019-03-30T07:58:18.653Z,13.22
2019-03-30T08:00:44.965Z,13.31
2019-03-30T08:03:11.277Z,13.19
2019-03-30T08:05:37.589Z,13.41
2019-03-30T08:08:03.903Z,13.16
2019-03-30T08:10:30.220Z,13.02
2019-03-30T08:12:56.543Z,13.27
2019-03-30T08:15:22.846Z,13.88
2019-03-30T08:17:49.212Z,14.12
2019-03-30T08:20:15.467Z,14.07
2019-03-30T08:22:41.784Z,13.98
2019-03-30T08:25:08.090Z,14.41
2019-03-30T08:27:34.402Z,14.34
2019-03-30T08:30:00.703Z,14.41
2019-03-30T08:32:27.018Z,13.74
2019-03-30T08:34:53.326Z,13.73
2019-03-30T08:37:19.633Z,13.44
2019-03-30T08:39:45.939Z,13.88
2019-03-30T08:42:12.252Z,14.13
2019-03-30T08:44:38.564Z,14.16
2019-03-30T08:47:05.019Z,14.59
2019-03-30T08:49:31.376Z,15.10
2019-03-30T08:51:57.687Z,15.13
2019-03-30T08:54:24.131Z,14.77
2019-03-30T08:56:50.445Z,14.81
2019-03-30T08:59:16.755Z,15.48
2019-03-30T09:01:43.105Z,15.85
2019-03-30T09:04:09.407Z,15.13
2019-03-30T09:06:35.717Z,14.55
2019-03-30T09:09:02.080Z,13.99
2019-03-30T09:11:28.392Z,14.54
2019-03-30T09:13:54.697Z,15.05
2019-03-30T09:16:21.023Z,15.34
2019-03-30T09:18:47.336Z,15.47
2019-03-30T09:21:13.645Z,14.94
2019-03-30T09:23:39.950Z,14.87
2019-03-30T09:26:06.261Z,15.39
2019-03-30T09:28:32.569Z,16.02
2019-03-30T09:30:58.877Z,15.47
2019-03-30T09:33:25.185Z,14.86
2019-03-30T09:35:51.495Z,14.85
2019-03-30T09:38:17.831Z,14.98
2019-03-30T09:40:44.144Z,15.12
2019-03-30T09:43:10.458Z,15.33
2019-03-30T09:45:36.777Z,16.54
2019-03-30T09:48:03.129Z,17.29
2019-03-30T09:50:29.444Z,17.05
2019-03-30T09:52:55.741Z,16.94
2019-03-30T09:55:22.084Z,16.56
2019-03-30T09:57:48.368Z,16.66
2019-03-30T10:00:14.681Z,16.00
2019-03-30T10:02:41.063Z,15.83
2019-03-30T10:05:08.089Z,15.87
2019-03-30T10:07:34.393Z,16.29
2019-03-30T10:10:01.118Z,16.26
2019-03-30T10:12:27.429Z,16.44
2019-03-30T10:14:55.052Z,16.06
2019-03-30T10:17:21.320Z,16.27
2019-03-30T10:19:58.043Z,16.74
2019-03-30T10:22:13.936Z,17.41
2019-03-30T10:24:40.254Z,16.96
2019-03-30T10:27:06.560Z,15.51
2019-03-30T10:29:32.865Z,15.04
2019-03-30T10:32:00.063Z,15.69
2019-03-30T10:34:25.515Z,16.46
2019-03-30T10:36:51.826Z,17.30
2019-03-30T10:39:18.141Z,17.84
2019-03-30T10:41:44.455Z,18.11
2019-03-30T10:44:10.760Z,17.27
2019-03-30T10:46:37.073Z,16.38
2019-03-30T10:49:04.017Z,16.10
2019-03-30T10:51:30.329Z,15.45
2019-03-30T10:53:56.641Z,14.69
2019-03-30T10:56:22.947Z,14.73
2019-03-30T10:58:49.378Z,15.77
2019-03-30T11:01:15.685Z,15.28
2019-03-30T11:03:41.994Z,14.77
2019-03-30T11:06:08.308Z,15.16
2019-03-30T11:08:34.612Z,15.87
2019-03-30T11:11:00.928Z,16.48
2019-03-30T11:13:27.358Z,16.83
2019-03-30T11:15:53.712Z,17.47
2019-03-30T11:18:20.016Z,17.87
2019-03-30T11:20:46.323Z,17.95
2019-03-30T11:23:12.635Z,18.05
2019-03-30T11:25:38.955Z,17.75
2019-03-30T11:28:05.271Z,17.68
2019-03-30T11:30:31.574Z,17.84
2019-03-30T11:32:57.883Z,18.27
2019-03-30T11:35:24.191Z,17.83
2019-03-30T11:37:50.505Z,18.08
2019-03-30T11:40:16.977Z,18.42
2019-03-30T11:42:43.293Z,18.58
2019-03-30T11:45:09.611Z,18.90
2019-03-30T11:47:35.941Z,19.22
2019-03-30T11:50:02.238Z,19.04
2019-03-30T11:52:28.612Z,18.71
2019-03-30T11:54:54.919Z,18.44
2019-03-30T11:57:21.223Z,18.51
2019-03-30T11:59:47.540Z,18.34
2019-03-30T12:02:27.005Z,17.89
2019-03-30T12:04:40.197Z,17.71
2019-03-30T12:07:06.499Z,18.31
2019-03-30T12:09:32.832Z,18.85
2019-03-30T12:11:59.145Z,18.57
2019-03-30T12:14:25.453Z,18.47
2019-03-30T12:16:51.760Z,18.42
2019-03-30T12:19:18.079Z,18.78
2019-03-30T12:21:44.386Z,19.37
2019-03-30T12:24:10.693Z,18.96
2019-03-30T12:26:37.006Z,18.59
2019-03-30T12:29:03.326Z,19.16
2019-03-30T12:31:29.669Z,19.21
2019-03-30T12:33:55.981Z,19.01
2019-03-30T12:36:22.313Z,19.04
2019-03-30T12:38:48.621Z,18.98
2019-03-30T12:41:15.029Z,18.43
2019-03-30T12:43:41.288Z,18.66
2019-03-30T12:46:07.594Z,18.38
2019-03-30T12:48:33.904Z,18.11
2019-03-30T12:51:00.254Z,18.24
2019-03-30T12:53:26.583Z,17.85
2019-03-30T12:55:52.927Z,17.47
2019-03-30T12:58:19.247Z,17.29
2019-03-30T13:00:45.565Z,16.58
2019-03-30T13:03:11.877Z,16.26
2019-03-30T13:05:38.183Z,16.03
2019-03-30T13:08:04.493Z,16.08
2019-03-30T13:10:30.809Z,16.20
2019-03-30T13:12:57.120Z,16.16
2019-03-30T13:15:23.536Z,15.98
2019-03-30T13:17:49.804Z,16.07
2019-03-30T13:20:16.143Z,15.95
2019-03-30T13:22:42.461Z,15.85
2019-03-30T13:25:08.766Z,16.00
2019-03-30T13:27:35.071Z,16.10
2019-03-30T13:30:01.383Z,15.88
2019-03-30T13:32:27.692Z,15.67
2019-03-30T13:34:54.000Z,15.81
2019-03-30T13:37:20.387Z,15.90
2019-03-30T13:39:46.701Z,15.80
2019-03-30T13:42:13.029Z,15.40
2019-03-30T13:44:39.332Z,15.28
2019-03-30T13:47:05.639Z,15.58
2019-03-30T13:49:31.954Z,15.55
2019-03-30T13:51:58.264Z,15.57
2019-03-30T13:54:24.694Z,15.55
2019-03-30T13:56:51.008Z,15.46
2019-03-30T13:59:17.317Z,15.49
2019-03-30T14:01:43.637Z,15.32
2019-03-30T14:04:09.984Z,15.33
2019-03-30T14:06:36.292Z,15.27
2019-03-30T14:09:02.603Z,15.25
2019-03-30T14:11:28.909Z,15.26
2019-03-30T14:13:55.217Z,15.30
2019-03-30T14:16:21.529Z,15.36
2019-03-30T14:18:47.843Z,15.40
2019-03-30T14:21:14.148Z,15.32
2019-03-30T14:23:43.302Z,15.06
2019-03-30T14:26:06.888Z,15.18
2019-03-30T14:28:33.219Z,15.12
2019-03-30T14:30:59.563Z,15.16
2019-03-30T14:33:25.892Z,15.20
2019-03-30T14:35:52.226Z,15.10
2019-03-30T14:38:18.538Z,15.01
2019-03-30T14:40:44.872Z,14.92
2019-03-30T14:43:11.181Z,15.01
2019-03-30T14:45:37.489Z,14.80
2019-03-30T14:48:03.803Z,14.70
2019-03-30T14:50:30.107Z,14.77
2019-03-30T14:52:56.418Z,14.78
2019-03-30T14:55:22.737Z,14.64
2019-03-30T14:57:49.073Z,14.56
2019-03-30T15:00:15.438Z,14.52
2019-03-30T15:02:41.701Z,14.41
2019-03-30T15:05:08.028Z,14.53
2019-03-30T15:07:34.335Z,14.62
2019-03-30T15:10:00.645Z,14.56
2019-03-30T15:12:26.956Z,14.40
2019-03-30T15:14:53.285Z,14.48
2019-03-30T15:17:19.916Z,14.37
2019-03-30T15:19:46.221Z,14.41
2019-03-30T15:22:12.531Z,14.46
2019-03-30T15:24:38.868Z,14.41
2019-03-30T15:27:05.180Z,14.38
2019-03-30T15:29:31.490Z,14.27
2019-03-30T15:31:57.903Z,14.07
2019-03-30T15:34:24.216Z,14.01
2019-03-30T15:36:50.546Z,14.05
2019-03-30T15:39:16.870Z,14.11
2019-03-30T15:41:43.180Z,14.03
2019-03-30T15:44:09.497Z,13.92
2019-03-30T15:46:35.813Z,13.82
2019-03-30T15:49:02.158Z,13.71
2019-03-30T15:51:28.470Z,13.78
2019-03-30T15:53:54.779Z,13.79
2019-03-30T15:56:21.125Z,13.70
2019-03-30T15:58:47.431Z,13.64
2019-03-30T16:01:13.746Z,13.52
2019-03-30T16:03:40.067Z,13.54
2019-03-30T16:06:06.382Z,13.50
2019-03-30T16:08:32.725Z,13.51
2019-03-30T16:10:59.029Z,13.42
2019-03-30T16:13:25.343Z,13.38
2019-03-30T16:15:51.648Z,13.31
2019-03-30T16:18:17.949Z,13.25
2019-03-30T16:20:44.295Z,13.18
2019-03-30T16:23:10.620Z,13.13
2019-03-30T16:25:36.924Z,13.14
2019-03-30T16:28:03.254Z,13.12
2019-03-30T16:30:29.580Z,12.96
2019-03-30T16:32:55.886Z,12.87
2019-03-30T16:35:22.227Z,12.80
2019-03-30T16:37:48.623Z,12.81
2019-03-30T16:40:14.928Z,12.72
2019-03-30T16:42:41.231Z,12.62
2019-03-30T16:45:07.539Z,12.59
2019-03-30T16:47:33.865Z,12.58
2019-03-30T16:50:00.384Z,12.54
2019-03-30T16:52:26.486Z,12.47
2019-03-30T16:54:52.801Z,12.38
2019-03-30T16:57:19.113Z,12.31
2019-03-30T16:59:45.430Z,12.27
2019-03-30T17:02:11.724Z,12.24
2019-03-30T17:04:38.036Z,12.17
2019-03-30T17:07:04.348Z,12.16
2019-03-30T17:09:30.662Z,12.13
2019-03-30T17:11:56.968Z,12.06
2019-03-30T17:14:23.298Z,12.03
2019-03-30T17:16:49.732Z,12.00
2019-03-30T17:19:16.065Z,11.98
2019-03-30T17:21:42.393Z,12.01
2019-03-30T17:24:08.718Z,11.96
2019-03-30T17:26:35.043Z,11.86
2019-03-30T17:29:01.369Z,11.75
2019-03-30T17:31:27.707Z,11.67
2019-03-30T17:33:54.027Z,11.62
2019-03-30T17:36:20.363Z,11.57
2019-03-30T17:38:46.696Z,11.51
2019-03-30T17:41:13.050Z,11.48
2019-03-30T17:43:39.385Z,11.41
2019-03-30T17:46:05.717Z,11.33
2019-03-30T17:48:32.047Z,11.32
2019-03-30T17:50:58.654Z,11.31
2019-03-30T17:53:24.699Z,11.24
2019-03-30T17:55:51.146Z,11.16
2019-03-30T17:58:17.471Z,11.17
2019-03-30T18:00:43.785Z,11.15
2019-03-30T18:03:10.173Z,11.25
2019-03-30T18:05:36.508Z,11.58
2019-03-30T18:08:02.837Z,11.60
2019-03-30T18:10:29.153Z,11.72
2019-03-30T18:12:55.474Z,11.86
2019-03-30T18:15:21.890Z,11.77
2019-03-30T18:17:48.222Z,11.58
2019-03-30T18:20:14.540Z,11.39
2019-03-30T18:22:40.864Z,11.35
2019-03-30T18:25:07.237Z,11.37
2019-03-30T18:27:33.568Z,11.38
2019-03-30T18:29:59.894Z,11.24
2019-03-30T18:32:26.239Z,11.11
2019-03-30T18:34:52.565Z,11.09
2019-03-30T18:37:18.893Z,11.09
2019-03-30T18:39:45.218Z,10.94
2019-03-30T18:42:11.544Z,10.85
2019-03-30T18:44:37.867Z,10.78
2019-03-30T18:47:04.234Z,10.67
2019-03-30T18:49:30.564Z,10.57
2019-03-30T18:51:56.895Z,10.51
2019-03-30T18:54:25.242Z,10.53
2019-03-30T18:56:49.897Z,10.66
2019-03-30T18:59:16.258Z,10.68
2019-03-30T19:01:42.584Z,10.69
2019-03-30T19:04:08.982Z,10.63
2019-03-30T19:06:35.306Z,10.62
2019-03-30T19:09:01.634Z,10.47
2019-03-30T19:11:27.957Z,10.50
2019-03-30T19:13:54.292Z,10.51
2019-03-30T19:16:20.616Z,10.37
2019-03-30T19:18:46.933Z,10.18
2019-03-30T19:21:13.258Z,10.19
2019-03-30T19:23:39.612Z,10.23
2019-03-30T19:26:05.962Z,10.27
2019-03-30T19:28:32.287Z,10.28
2019-03-30T19:30:58.621Z,10.33
2019-03-30T19:33:24.950Z,10.25
2019-03-30T19:35:51.279Z,10.13
2019-03-30T19:38:17.614Z,10.03
2019-03-30T19:40:43.937Z,9.92
2019-03-30T19:43:10.267Z,9.82
2019-03-30T19:45:36.596Z,9.77
2019-03-30T19:48:02.921Z,9.71
2019-03-30T19:50:29.246Z,9.65
2019-03-30T19:52:55.768Z,9.71
2019-03-30T19:55:22.089Z,9.81
2019-03-30T19:57:48.440Z,9.84
2019-03-30T20:00:14.765Z,9.81
2019-03-30T20:02:41.083Z,9.87
2019-03-30T20:05:07.410Z,9.80
2019-03-30T20:07:33.721Z,9.73
2019-03-30T20:10:00.056Z,9.63
2019-03-30T20:12:26.439Z,9.63
2019-03-30T20:14:52.785Z,9.60
2019-03-30T20:17:19.122Z,9.65
2019-03-30T20:19:45.436Z,9.75
2019-03-30T20:22:11.773Z,9.78
2019-03-30T20:24:38.111Z,9.75
2019-03-30T20:27:04.545Z,9.85
2019-03-30T20:29:30.878Z,9.72
2019-03-30T20:31:57.197Z,9.58
2019-03-30T20:34:23.536Z,9.53
2019-03-30T20:36:49.866Z,9.51
2019-03-30T20:39:16.191Z,9.52
2019-03-30T20:41:42.534Z,9.56
2019-03-30T20:44:08.854Z,9.52
2019-03-30T20:46:35.181Z,9.39
2019-03-30T20:49:01.508Z,9.37
2019-03-30T20:51:27.824Z,9.36
2019-03-30T20:53:54.145Z,9.45
2019-03-30T20:56:20.467Z,9.38
2019-03-30T20:58:46.903Z,9.26
2019-03-30T21:01:13.146Z,9.04
2019-03-30T21:03:39.471Z,9.02
2019-03-30T21:06:05.793Z,9.14
2019-03-30T21:08:32.142Z,9.27
2019-03-30T21:10:58.475Z,9.32
2019-03-30T21:13:24.814Z,9.39
2019-03-30T21:15:51.125Z,9.36
2019-03-30T21:18:17.441Z,9.23
2019-03-30T21:20:43.778Z,9.10
2019-03-30T21:23:10.138Z,9.00
2019-03-30T21:25:36.459Z,8.96
2019-03-30T21:28:02.777Z,8.91
2019-03-30T21:30:29.127Z,8.84
2019-03-30T21:32:55.463Z,8.76
2019-03-30T21:35:21.783Z,8.71
2019-03-30T21:37:48.092Z,8.77
2019-03-30T21:40:14.439Z,8.76
2019-03-30T21:42:40.767Z,8.76
2019-03-30T21:45:07.141Z,8.62
2019-03-30T21:47:33.471Z,8.54
2019-03-30T21:49:59.790Z,8.58
2019-03-30T21:52:26.143Z,8.54
2019-03-30T21:54:52.640Z,8.43
2019-03-30T21:57:18.926Z,8.29
2019-03-30T21:59:45.245Z,8.23
2019-03-30T22:02:11.570Z,8.23
2019-03-30T22:04:37.905Z,8.16
2019-03-30T22:07:04.235Z,7.96
2019-03-30T22:09:30.558Z,7.88
2019-03-30T22:11:56.882Z,7.92
2019-03-30T22:14:23.233Z,7.90
2019-03-30T22:16:49.561Z,7.88
2019-03-30T22:19:15.890Z,7.78
2019-03-30T22:21:42.209Z,7.74
2019-03-30T22:24:08.557Z,7.59
2019-03-30T22:26:34.875Z,7.50
2019-03-30T22:29:01.204Z,7.36
2019-03-30T22:31:27.548Z,7.52
2019-03-30T22:33:53.864Z,7.32
2019-03-30T22:36:20.201Z,7.21
2019-03-30T22:38:46.528Z,7.28
2019-03-30T22:41:12.854Z,7.39
2019-03-30T22:43:39.490Z,7.31
2019-03-30T22:46:07.502Z,7.34
2019-03-30T22:48:32.157Z,7.32
2019-03-30T22:50:58.479Z,7.24
2019-03-30T22:53:24.805Z,7.22
2019-03-30T22:55:51.252Z,7.26
2019-03-30T22:58:17.677Z,7.36
2019-03-30T23:00:44.123Z,7.41
2019-03-30T23:03:10.458Z,7.35
2019-03-30T23:05:36.785Z,7.33
2019-03-30T23:08:03.094Z,7.35
2019-03-30T23:10:29.410Z,7.24
2019-03-30T23:12:55.711Z,7.25
2019-03-30T23:15:22.022Z,7.19
2019-03-30T23:17:48.328Z,7.19
2019-03-30T23:20:14.633Z,7.18
2019-03-30T23:22:40.945Z,7.28
2019-03-30T23:25:07.257Z,7.30
2019-03-30T23:27:33.555Z,7.27
2019-03-30T23:29:59.894Z,7.22
2019-03-30T23:32:26.221Z,7.10
2019-03-30T23:34:52.550Z,7.24
2019-03-30T23:37:18.853Z,7.20
2019-03-30T23:39:45.159Z,7.18
2019-03-30T23:42:11.462Z,7.24
2019-03-30T23:44:37.809Z,7.18
2019-03-30T23:47:04.119Z,7.19
2019-03-30T23:49:30.439Z,7.06
2019-03-30T23:51:56.752Z,6.97
2019-03-30T23:54:23.077Z,6.91
2019-03-30T23:56:49.398Z,6.91
2019-03-30T23:59:15.700Z,6.87
